Time;durP1;ratioP1;P1;durP2;ratioP2;P2;SDS_P1;SDS_P2;PMS_P1;PMS_P2;Temp;Humidity;BMP_temperature;BMP_pressure;BME280_temperature;BME280_humidity;BME280_pressure;Samples;Min_cycle;Max_cycle;Signal;HPM_P1;HPM_P2
2021/08/02 00:00:24;;;;;;;3.05;2.65;;;16.00;99.90;;;;;;5055454;28;20017;-80
2021/08/02 00:02:50;;;;;;;3.85;2.67;;;16.00;99.90;;;;;;5053759;28;20029;-80
2021/08/02 00:05:17;;;;;;;3.53;3.05;;;16.00;99.90;;;;;;5068365;28;20028;-79
2021/08/02 00:07:45;;;;;;;3.95;2.60;;;16.00;99.90;;;;;;5065764;28;20080;-79
2021/08/02 00:10:16;;;;;;;4.25;2.60;;;16.00;99.90;;;;;;5064947;28;20090;-80
2021/08/02 00:12:52;;;;;;;3.92;2.90;;;16.00;99.90;;;;;;5062463;28;20104;-80
2021/08/02 00:15:19;;;;;;;3.00;2.60;;;16.00;99.90;;;;;;5055741;28;20029;-79
2021/08/02 00:17:46;;;;;;;5.70;3.00;;;15.90;99.90;;;;;;5068497;28;20052;-80
2021/08/02 00:20:16;;;;;;;3.13;2.53;;;15.90;99.90;;;;;;5066098;28;20106;-80
2021/08/02 00:22:42;;;;;;;3.75;2.80;;;15.90;99.90;;;;;;5063586;28;20555;-80
2021/08/02 00:25:09;;;;;;;4.68;2.53;;;15.90;99.90;;;;;;5067099;28;20020;-80
2021/08/02 00:27:35;;;;;;;4.78;2.80;;;15.90;99.90;;;;;;5059268;28;20032;-80
2021/08/02 00:30:02;;;;;;;6.35;2.90;;;15.90;99.90;;;;;;5059312;28;20030;-80
2021/08/02 00:32:27;;;;;;;3.95;2.88;;;16.00;99.90;;;;;;5062192;28;20443;-80
2021/08/02 00:34:53;;;;;;;4.78;2.70;;;16.00;99.90;;;;;;5067750;28;20422;-80
2021/08/02 00:37:27;;;;;;;3.17;2.88;;;16.00;99.90;;;;;;5066777;28;20028;-80
2021/08/02 00:40:00;;;;;;;4.95;3.08;;;16.00;99.90;;;;;;5063734;28;20029;-80
2021/08/02 00:42:44;;;;;;;3.67;3.00;;;15.90;99.90;;;;;;5067807;28;20035;-79
2021/08/02 00:45:11;;;;;;;3.15;2.67;;;15.90;99.90;;;;;;5060807;28;20021;-78
2021/08/02 00:47:43;;;;;;;4.05;3.17;;;15.90;99.90;;;;;;5059697;28;20024;-79
2021/08/02 00:50:13;;;;;;;4.07;2.95;;;15.90;99.90;;;;;;5065390;28;20017;-79
2021/08/02 00:52:47;;;;;;;3.42;2.88;;;16.00;99.90;;;;;;5070524;28;20077;-80
2021/08/02 00:55:13;;;;;;;3.47;2.95;;;15.90;99.90;;;;;;5071000;28;20035;-80
2021/08/02 00:57:41;;;;;;;3.10;2.80;;;15.90;99.90;;;;;;5067418;28;20723;-80
2021/08/02 01:00:14;;;;;;;4.45;2.95;;;15.90;99.90;;;;;;5065405;28;20036;-80
2021/08/02 01:02:43;;;;;;;3.70;2.88;;;15.90;99.90;;;;;;5060489;28;20491;-80
2021/08/02 01:05:11;;;;;;;5.18;3.22;;;15.90;99.90;;;;;;5071187;28;20016;-80
2021/08/02 01:07:42;;;;;;;4.47;3.15;;;15.90;99.90;;;;;;5070740;28;20044;-80
2021/08/02 01:10:10;;;;;;;3.75;3.00;;;15.90;99.90;;;;;;5070758;28;20031;-80
2021/08/02 01:12:36;;;;;;;4.07;2.83;;;15.90;99.90;;;;;;5062127;28;20024;-80
2021/08/02 01:15:02;;;;;;;4.30;3.10;;;15.90;99.90;;;;;;5060345;28;20029;-80
2021/08/02 01:17:29;;;;;;;3.67;3.25;;;15.80;99.90;;;;;;5055795;28;20310;-80
2021/08/02 01:19:55;;;;;;;4.65;3.38;;;15.90;99.90;;;;;;5063383;28;20103;-80
2021/08/02 01:22:29;;;;;;;4.43;3.60;;;15.90;99.90;;;;;;5069584;28;20052;-80
2021/08/02 01:24:55;;;;;;;4.03;3.28;;;15.80;99.90;;;;;;5065802;28;20107;-79
2021/08/02 01:27:46;;;;;;;4.38;3.40;;;15.80;99.90;;;;;;5063752;28;20036;-80
2021/08/02 01:30:22;;;;;;;5.32;3.53;;;15.80;99.90;;;;;;5063876;28;20281;-80
2021/08/02 01:32:48;;;;;;;4.53;3.45;;;15.80;99.90;;;;;;5061857;28;20033;-80
2021/08/02 01:35:15;;;;;;;3.80;3.05;;;15.80;99.90;;;;;;5063338;28;20023;-80
2021/08/02 01:37:42;;;;;;;4.47;3.08;;;15.80;99.90;;;;;;5062897;28;20055;-80
2021/08/02 01:40:09;;;;;;;8.27;3.25;;;15.80;99.90;;;;;;5061940;28;20052;-80
2021/08/02 01:42:35;;;;;;;4.13;3.10;;;15.80;99.90;;;;;;5070420;28;20017;-80
2021/08/02 01:45:00;;;;;;;5.68;3.10;;;15.80;99.90;;;;;;5061940;28;20020;-80
2021/08/02 01:47:40;;;;;;;5.07;3.28;;;15.90;99.90;;;;;;5067066;28;20298;-80
2021/08/02 01:50:35;;;;;;;5.43;3.20;;;15.80;99.90;;;;;;5064876;28;20024;-79
2021/08/02 01:53:22;;;;;;;5.28;2.85;;;15.80;99.90;;;;;;5059836;28;20025;-79
2021/08/02 01:55:58;;;;;;;4.45;3.20;;;15.80;99.90;;;;;;5068590;28;20056;-79
2021/08/02 01:58:29;;;;;;;5.18;3.67;;;15.80;99.90;;;;;;5064049;28;20024;-80
2021/08/02 02:00:55;;;;;;;4.18;3.35;;;15.80;99.90;;;;;;5068754;28;20478;-78
2021/08/02 02:03:24;;;;;;;4.50;3.47;;;15.80;99.90;;;;;;5067670;28;20024;-79
2021/08/02 02:05:57;;;;;;;6.75;3.72;;;15.80;99.90;;;;;;5063230;28;20115;-79
2021/08/02 02:08:30;;;;;;;7.03;3.85;;;15.80;99.90;;;;;;5061782;28;20036;-79
2021/08/02 02:10:59;;;;;;;4.13;2.80;;;15.80;99.90;;;;;;5055532;28;20032;-80
2021/08/02 02:13:31;;;;;;;5.70;3.30;;;15.80;99.90;;;;;;5050097;28;20031;-79
2021/08/02 02:15:58;;;;;;;;;;;15.80;99.90;;;;;;5064975;28;20231;-80
2021/08/02 02:18:26;;;;;;;4.13;2.72;;;15.80;99.90;;;;;;5057701;28;19916;-79
2021/08/02 02:20:53;;;;;;;3.60;2.90;;;15.80;99.90;;;;;;5067239;28;20481;-79
2021/08/02 02:23:19;;;;;;;3.42;2.60;;;15.80;99.90;;;;;;5063355;28;20029;-78
2021/08/02 02:25:46;;;;;;;3.88;2.65;;;15.80;99.90;;;;;;5068535;28;20104;-79
2021/08/02 02:28:15;;;;;;;3.45;2.33;;;15.80;99.90;;;;;;5056257;28;20043;-79
2021/08/02 02:30:42;;;;;;;3.83;2.63;;;15.80;99.90;;;;;;5069460;28;20099;-79
2021/08/02 02:33:09;;;;;;;4.15;2.30;;;15.80;99.90;;;;;;5064426;28;20075;-80
2021/08/02 02:35:40;;;;;;;5.30;2.50;;;15.80;99.90;;;;;;5055387;28;20033;-79
2021/08/02 02:38:08;;;;;;;9.20;2.22;;;15.80;99.90;;;;;;5061361;28;20024;-79
2021/08/02 02:40:34;;;;;;;3.58;2.50;;;15.80;99.90;;;;;;5068230;28;20032;-80
2021/08/02 02:43:00;;;;;;;2.67;2.22;;;15.80;99.90;;;;;;5064343;28;20040;-80
2021/08/02 02:45:27;;;;;;;3.00;2.38;;;15.80;99.90;;;;;;5058669;28;20033;-79
2021/08/02 02:47:53;;;;;;;4.68;2.50;;;15.80;99.90;;;;;;5068083;28;20039;-79
2021/08/02 02:50:19;;;;;;;5.18;2.08;;;15.80;99.90;;;;;;5056127;28;20032;-78
2021/08/02 02:52:46;;;;;;;5.50;3.10;;;15.80;99.90;;;;;;5066714;28;20081;-78
2021/08/02 02:55:12;;;;;;;3.17;2.47;;;15.80;99.90;;;;;;5064405;28;20028;-78
2021/08/02 02:57:38;;;;;;;5.68;2.42;;;15.80;99.90;;;;;;5061024;28;20037;-78
2021/08/02 03:00:07;;;;;;;6.68;3.10;;;15.80;99.90;;;;;;5062713;28;20360;-79
2021/08/02 03:02:34;;;;;;;5.00;2.80;;;15.80;99.90;;;;;;5062694;28;20025;-79
2021/08/02 03:05:01;;;;;;;4.47;2.80;;;15.80;99.90;;;;;;5065749;28;20693;-79
2021/08/02 03:07:29;;;;;;;4.68;2.30;;;15.80;99.90;;;;;;5064085;28;20074;-77
2021/08/02 03:09:57;;;;;;;2.70;2.20;;;15.70;99.90;;;;;;5060276;28;20037;-77
2021/08/02 03:12:22;;;;;;;3.55;2.55;;;15.80;99.90;;;;;;5066138;28;20017;-78
2021/08/02 03:14:48;;;;;;;4.95;2.60;;;15.70;99.90;;;;;;5066432;28;20028;-78
2021/08/02 03:17:14;;;;;;;3.28;2.70;;;15.70;99.90;;;;;;5065507;28;20024;-78
2021/08/02 03:19:39;;;;;;;3.38;2.70;;;15.70;99.90;;;;;;5061139;28;20043;-79
2021/08/02 03:22:19;;;;;;;3.10;2.60;;;15.70;99.90;;;;;;5066167;28;20029;-78
2021/08/02 03:24:47;;;;;;;3.20;2.22;;;15.70;99.90;;;;;;5054823;28;20028;-78
2021/08/02 03:27:28;;;;;;;2.72;2.30;;;15.70;99.90;;;;;;5067355;28;20035;-78
2021/08/02 03:30:01;;;;;;;4.82;2.10;;;15.70;99.90;;;;;;5055411;28;20031;-78
2021/08/02 03:32:28;;;;;;;3.40;2.25;;;15.60;99.90;;;;;;5066855;28;20032;-78
2021/08/02 03:34:59;;;;;;;3.80;2.35;;;15.60;99.90;;;;;;5058771;28;20028;-78
2021/08/02 03:37:26;;;;;;;4.43;2.22;;;15.60;99.90;;;;;;5062345;28;20482;-78
2021/08/02 03:39:54;;;;;;;5.00;2.28;;;15.60;99.90;;;;;;5067225;28;20090;-77
2021/08/02 03:42:21;;;;;;;4.43;2.47;;;15.60;99.90;;;;;;5064798;28;20020;-78
2021/08/02 03:44:49;;;;;;;4.75;2.55;;;15.60;99.90;;;;;;5064582;28;20099;-78
2021/08/02 03:47:15;;;;;;;4.88;2.50;;;15.60;99.90;;;;;;5062562;28;20131;-78
2021/08/02 03:49:41;;;;;;;4.18;2.17;;;15.60;99.90;;;;;;5063901;28;20207;-79
2021/08/02 03:52:07;;;;;;;3.22;2.00;;;15.60;99.90;;;;;;5063147;28;20054;-78
2021/08/02 03:54:32;;;;;;;4.15;2.58;;;15.60;99.90;;;;;;5059253;28;20029;-79
2021/08/02 03:57:01;;;;;;;4.80;2.50;;;15.60;99.90;;;;;;5062634;28;20450;-78
2021/08/02 03:59:26;;;;;;;3.25;2.28;;;15.60;99.90;;;;;;5066768;28;20025;-79
2021/08/02 04:01:52;;;;;;;4.20;2.45;;;15.60;99.90;;;;;;5059256;28;20112;-78
2021/08/02 04:04:18;;;;;;;7.30;2.75;;;15.60;99.90;;;;;;5054425;28;20029;-79
2021/08/02 04:06:43;;;;;;;3.78;2.35;;;15.60;99.90;;;;;;5057821;28;20048;-79
2021/08/02 04:09:11;;;;;;;5.68;2.75;;;15.70;99.90;;;;;;5057328;28;20083;-78
2021/08/02 04:11:39;;;;;;;5.75;2.42;;;15.60;99.90;;;;;;5066649;28;20043;-79
2021/08/02 04:14:05;;;;;;;4.22;2.58;;;15.60;99.90;;;;;;5045150;28;20119;-78
2021/08/02 04:16:31;;;;;;;5.10;3.45;;;15.60;99.90;;;;;;5062498;28;20052;-79
2021/08/02 04:18:56;;;;;;;4.05;2.83;;;15.60;99.90;;;;;;5054434;28;20422;-79
2021/08/02 04:21:22;;;;;;;4.22;2.75;;;15.60;99.90;;;;;;5042941;28;20025;-79
2021/08/02 04:23:48;;;;;;;3.60;2.20;;;15.60;99.90;;;;;;5057354;28;20379;-80
2021/08/02 04:26:13;;;;;;;2.40;2.20;;;15.70;99.90;;;;;;5059838;28;20089;-79
2021/08/02 04:28:40;;;;;;;5.20;2.63;;;15.70;99.90;;;;;;5048637;28;20028;-79
2021/08/02 04:31:06;;;;;;;4.45;2.70;;;15.70;99.90;;;;;;5064854;28;20033;-79
2021/08/02 04:33:31;;;;;;;6.20;2.70;;;15.70;99.90;;;;;;5063627;28;20028;-79
2021/08/02 04:35:57;;;;;;;5.53;2.70;;;15.70;99.90;;;;;;5066564;28;20031;-79
2021/08/02 04:38:23;;;;;;;6.55;2.70;;;15.70;99.90;;;;;;5062972;28;20043;-78
2021/08/02 04:40:48;;;;;;;9.05;2.83;;;15.80;99.90;;;;;;5062546;28;20033;-79
2021/08/02 04:43:14;;;;;;;4.15;2.40;;;15.70;99.90;;;;;;5051496;28;20032;-79
2021/08/02 04:45:39;;;;;;;3.33;2.30;;;15.70;99.90;;;;;;5068055;28;20033;-78
2021/08/02 04:48:05;;;;;;;2.97;2.10;;;15.70;99.90;;;;;;5068249;28;20095;-78
2021/08/02 04:50:30;;;;;;;5.13;2.03;;;15.60;99.90;;;;;;5068963;28;20039;-78
2021/08/02 04:52:56;;;;;;;2.85;1.95;;;15.60;99.90;;;;;;5069432;28;20480;-78
2021/08/02 04:55:21;;;;;;;5.70;2.30;;;15.60;99.90;;;;;;5061867;28;20033;-77
2021/08/02 04:57:47;;;;;;;10.48;2.40;;;15.70;99.90;;;;;;5063331;28;20367;-78
2021/08/02 05:00:13;;;;;;;3.00;1.92;;;15.70;99.90;;;;;;5065547;28;20050;-79
2021/08/02 05:02:39;;;;;;;4.07;1.90;;;15.60;99.90;;;;;;5068870;28;20024;-79
2021/08/02 05:05:05;;;;;;;4.90;2.35;;;15.60;99.90;;;;;;5064290;28;20482;-78
2021/08/02 05:07:30;;;;;;;3.05;2.00;;;15.60;99.90;;;;;;5055471;28;20101;-79
2021/08/02 05:09:56;;;;;;;5.22;2.83;;;15.60;99.90;;;;;;5061724;28;20051;-78
2021/08/02 05:12:22;;;;;;;7.70;2.78;;;15.60;99.90;;;;;;5067353;28;20116;-79
2021/08/02 05:14:47;;;;;;;5.30;2.70;;;15.60;99.90;;;;;;5065374;28;20052;-79
2021/08/02 05:17:24;;;;;;;3.78;2.28;;;15.60;99.90;;;;;;5070155;28;20067;-78
2021/08/02 05:19:50;;;;;;;4.55;2.13;;;15.60;99.90;;;;;;5057468;28;20053;-77
2021/08/02 05:22:15;;;;;;;4.30;1.80;;;15.60;99.90;;;;;;5058922;28;20058;-78
2021/08/02 05:24:41;;;;;;;2.63;2.15;;;15.60;99.90;;;;;;5055975;28;20024;-78
2021/08/02 05:27:06;;;;;;;4.10;2.05;;;15.60;99.90;;;;;;5067777;28;20047;-78
2021/08/02 05:29:32;;;;;;;3.38;1.80;;;15.70;99.90;;;;;;5069317;28;20134;-78
2021/08/02 05:31:57;;;;;;;6.00;2.20;;;15.70;99.90;;;;;;5066988;28;20201;-78
2021/08/02 05:34:22;;;;;;;4.72;2.15;;;15.70;99.90;;;;;;5069884;28;20085;-78
2021/08/02 05:36:48;;;;;;;4.45;2.33;;;15.70;99.90;;;;;;5066412;28;20028;-78
2021/08/02 05:39:13;;;;;;;4.55;2.30;;;15.80;99.90;;;;;;5070105;28;20063;-78
2021/08/02 05:41:39;;;;;;;6.43;1.95;;;15.80;99.90;;;;;;5070682;28;20403;-78
2021/08/02 05:44:05;;;;;;;4.40;1.90;;;15.80;99.90;;;;;;5056692;28;20406;-78
2021/08/02 05:46:30;;;;;;;2.28;1.92;;;15.90;99.90;;;;;;5067306;28;20024;-76
2021/08/02 05:48:56;;;;;;;4.15;2.20;;;16.00;99.90;;;;;;5062558;28;20086;-77
2021/08/02 05:51:22;;;;;;;4.93;2.28;;;16.00;99.90;;;;;;5059920;28;20336;-78
2021/08/02 05:53:47;;;;;;;4.22;2.20;;;16.10;99.90;;;;;;5068431;28;20407;-78
2021/08/02 05:56:13;;;;;;;3.47;2.22;;;16.10;99.90;;;;;;5068843;28;20032;-78
2021/08/02 05:58:42;;;;;;;3.00;2.05;;;16.20;99.90;;;;;;5069097;28;20171;-77
2021/08/02 06:01:07;;;;;;;6.63;2.00;;;16.30;99.90;;;;;;5055758;28;20407;-78
2021/08/02 06:03:33;;;;;;;6.35;2.10;;;16.30;99.90;;;;;;5062639;28;20025;-78
2021/08/02 06:05:59;;;;;;;5.38;1.88;;;16.30;99.90;;;;;;5068544;28;20045;-79
2021/08/02 06:08:25;;;;;;;2.58;1.77;;;16.30;99.90;;;;;;5063913;28;20029;-78
2021/08/02 06:10:50;;;;;;;6.88;2.13;;;16.30;99.90;;;;;;5062543;28;20029;-78
2021/08/02 06:13:16;;;;;;;2.92;1.98;;;16.50;99.90;;;;;;5061151;28;20025;-78
2021/08/02 06:15:41;;;;;;;6.13;2.42;;;16.50;99.90;;;;;;5060162;28;20024;-78
2021/08/02 06:18:10;;;;;;;2.95;2.00;;;16.60;99.90;;;;;;5063326;28;20032;-78
2021/08/02 06:20:35;;;;;;;6.28;1.90;;;16.60;99.90;;;;;;5066451;28;20029;-78
2021/08/02 06:23:04;;;;;;;4.47;2.00;;;16.60;99.90;;;;;;5061237;28;20029;-79
2021/08/02 06:25:29;;;;;;;2.63;1.70;;;16.50;99.90;;;;;;5064252;28;20021;-79
2021/08/02 06:27:55;;;;;;;3.67;1.80;;;16.50;99.90;;;;;;5063956;28;20479;-75
2021/08/02 06:30:20;;;;;;;3.72;1.80;;;16.50;99.90;;;;;;5064347;28;20486;-80
2021/08/02 06:32:46;;;;;;;2.60;1.73;;;16.60;99.90;;;;;;5061470;28;20028;-80
2021/08/02 06:35:12;;;;;;;3.05;1.85;;;16.70;99.90;;;;;;5056044;28;20398;-78
2021/08/02 06:37:41;;;;;;;7.57;2.15;;;16.70;99.90;;;;;;5061311;28;20582;-76
2021/08/02 06:40:11;;;;;;;2.65;1.70;;;16.80;99.90;;;;;;5063867;28;20024;-83
2021/08/02 06:42:37;;;;;;;3.13;1.85;;;16.80;99.90;;;;;;5063440;28;20017;-77
2021/08/02 06:45:03;;;;;;;4.50;1.90;;;16.80;99.90;;;;;;5066577;28;20044;-74
2021/08/02 06:47:29;;;;;;;5.10;2.13;;;16.90;99.90;;;;;;5060649;28;20103;-73
2021/08/02 06:49:54;;;;;;;3.10;1.27;;;16.90;99.90;;;;;;5065324;28;20466;-73
2021/08/02 06:52:20;;;;;;;2.42;1.50;;;16.80;99.90;;;;;;5067959;28;20024;-73
2021/08/02 06:54:45;;;;;;;4.28;1.48;;;16.80;99.90;;;;;;5068848;28;20028;-73
2021/08/02 06:57:11;;;;;;;2.95;1.45;;;16.80;99.90;;;;;;5065508;28;20025;-73
2021/08/02 06:59:36;;;;;;;1.95;1.20;;;16.70;99.90;;;;;;5067216;28;20107;-73
2021/08/02 07:02:02;;;;;;;2.72;1.40;;;16.60;99.90;;;;;;5065084;28;20032;-73
2021/08/02 07:04:27;;;;;;;3.08;1.58;;;16.60;99.90;;;;;;5069463;28;20658;-74
2021/08/02 07:06:53;;;;;;;2.72;1.40;;;16.60;99.90;;;;;;5069566;28;20597;-72
2021/08/02 07:09:18;;;;;;;1.95;1.10;;;16.60;99.90;;;;;;5053354;28;20025;-74
2021/08/02 07:11:44;;;;;;;4.32;1.10;;;16.70;99.90;;;;;;5061476;28;20116;-73
2021/08/02 07:14:09;;;;;;;3.00;1.40;;;16.80;99.90;;;;;;5056992;28;20055;-72
2021/08/02 07:16:35;;;;;;;1.90;1.10;;;17.00;99.90;;;;;;5058511;28;20101;-73
2021/08/02 07:19:00;;;;;;;4.10;1.38;;;17.10;99.90;;;;;;5068189;28;20024;-73
2021/08/02 07:21:25;;;;;;;4.10;1.25;;;17.20;99.90;;;;;;5061673;28;20498;-74
2021/08/02 07:23:51;;;;;;;4.13;1.38;;;17.20;99.90;;;;;;5058876;28;20023;-73
2021/08/02 07:26:16;;;;;;;1.58;1.20;;;17.20;99.90;;;;;;5066156;28;20036;-73
2021/08/02 07:28:43;;;;;;;2.25;1.38;;;17.20;99.90;;;;;;5068315;28;20024;-74
2021/08/02 07:31:09;;;;;;;5.05;1.40;;;17.20;99.90;;;;;;5065228;28;20037;-73
2021/08/02 07:33:34;;;;;;;4.13;1.50;;;17.10;99.90;;;;;;5052380;28;20032;-73
2021/08/02 07:36:00;;;;;;;2.58;1.52;;;17.10;99.90;;;;;;5066186;28;20106;-73
2021/08/02 07:38:25;;;;;;;1.67;1.27;;;17.10;99.90;;;;;;5061594;28;20395;-73
2021/08/02 07:40:51;;;;;;;6.22;1.50;;;17.10;99.90;;;;;;5068954;28;20023;-73
2021/08/02 07:43:16;;;;;;;3.13;1.33;;;17.30;99.90;;;;;;5067667;28;20115;-73
2021/08/02 07:45:42;;;;;;;1.38;1.17;;;17.40;99.90;;;;;;5059508;28;20062;-73
2021/08/02 07:48:07;;;;;;;3.45;1.58;;;17.50;99.90;;;;;;5057118;28;20039;-74
2021/08/02 07:50:33;;;;;;;1.95;1.10;;;17.40;99.90;;;;;;5065416;28;20415;-73
2021/08/02 07:53:11;;;;;;;1.73;1.10;;;17.40;99.90;;;;;;5056696;28;20522;-73
2021/08/02 07:55:36;;;;;;;1.67;0.98;;;17.40;99.90;;;;;;5063069;28;20032;-74
2021/08/02 07:58:06;;;;;;;4.07;1.30;;;17.50;99.90;;;;;;5066209;28;20107;-73
2021/08/02 08:00:32;;;;;;;3.53;1.17;;;17.70;99.60;;;;;;5060000;28;20056;-73
2021/08/02 08:02:57;;;;;;;2.20;1.00;;;17.70;99.70;;;;;;5056949;28;20079;-74
2021/08/02 08:05:23;;;;;;;3.58;1.40;;;17.60;97.70;;;;;;5054044;28;20028;-73
2021/08/02 08:07:50;;;;;;;3.00;1.33;;;17.60;96.00;;;;;;5067086;28;20045;-74
2021/08/02 08:10:21;;;;;;;4.05;0.90;;;17.70;96.40;;;;;;5064732;28;20119;-74
2021/08/02 08:12:48;;;;;;;5.20;1.00;;;17.80;96.50;;;;;;5058949;28;20538;-77
2021/08/02 08:15:14;;;;;;;2.08;1.08;;;17.90;95.80;;;;;;5057784;28;20119;-76
2021/08/02 08:17:40;;;;;;;2.58;1.00;;;18.00;95.30;;;;;;5065343;28;20025;-77
2021/08/02 08:20:08;;;;;;;6.60;0.90;;;18.10;94.00;;;;;;5061987;28;20025;-74
2021/08/02 08:22:34;;;;;;;1.10;0.80;;;18.10;93.60;;;;;;5061760;28;20108;-76
2021/08/02 08:24:59;;;;;;;2.70;0.98;;;18.10;94.40;;;;;;5062412;28;20071;-82
2021/08/02 08:27:25;;;;;;;2.70;1.00;;;18.10;93.40;;;;;;5053630;28;20024;-76
2021/08/02 08:29:51;;;;;;;1.50;0.82;;;18.10;93.40;;;;;;5061071;28;20024;-72
2021/08/02 08:32:16;;;;;;;1.92;1.15;;;18.10;91.90;;;;;;5062904;28;20056;-72
2021/08/02 08:34:42;;;;;;;2.88;1.30;;;18.00;91.80;;;;;;5063593;28;20037;-73
2021/08/02 08:37:07;;;;;;;2.33;1.20;;;18.10;92.10;;;;;;5065311;28;20033;-73
2021/08/02 08:39:33;;;;;;;1.00;0.90;;;18.10;92.40;;;;;;5057373;28;20034;-73
2021/08/02 08:41:58;;;;;;;3.00;1.20;;;18.30;92.20;;;;;;5063539;28;20021;-72
2021/08/02 08:44:28;;;;;;;2.90;1.13;;;18.40;91.60;;;;;;5060398;28;20060;-72
2021/08/02 08:46:54;;;;;;;2.03;0.90;;;18.50;93.40;;;;;;5063945;28;20028;-73
2021/08/02 08:49:19;;;;;;;4.78;1.38;;;18.60;91.20;;;;;;5057731;28;20495;-73
2021/08/02 08:51:46;;;;;;;2.13;0.90;;;18.60;90.20;;;;;;5065563;28;20098;-75
2021/08/02 08:54:12;;;;;;;1.90;1.00;;;18.60;88.30;;;;;;5060630;28;20028;-73
2021/08/02 08:56:52;;;;;;;3.75;1.13;;;18.60;91.00;;;;;;5051562;28;20511;-74
2021/08/02 08:59:18;;;;;;;1.83;1.10;;;18.50;90.40;;;;;;5057140;28;20049;-77
2021/08/02 09:01:44;;;;;;;3.17;1.13;;;18.50;89.50;;;;;;5054908;28;20518;-77
2021/08/02 09:04:09;;;;;;;2.85;1.23;;;18.60;90.10;;;;;;5058880;28;20093;-76
2021/08/02 09:06:48;;;;;;;2.50;1.20;;;18.70;89.00;;;;;;5066600;28;20051;-77
2021/08/02 09:09:33;;;;;;;1.67;1.15;;;19.00;87.80;;;;;;5061727;28;20221;-76
2021/08/02 09:12:19;;;;;;;2.83;1.13;;;19.20;85.90;;;;;;5039268;28;20639;-76
2021/08/02 09:14:51;;;;;;;3.40;1.20;;;19.30;85.50;;;;;;5062391;28;20029;-76
2021/08/02 09:17:27;;;;;;;4.00;1.10;;;19.20;86.60;;;;;;5069963;28;20111;-79
2021/08/02 09:19:53;;;;;;;3.63;1.05;;;19.10;86.00;;;;;;5063424;28;20025;-78
2021/08/02 09:22:35;;;;;;;2.22;1.10;;;19.10;86.10;;;;;;5070344;28;20025;-79
2021/08/02 09:25:06;;;;;;;2.40;1.15;;;18.90;86.40;;;;;;5059957;28;20275;-78
2021/08/02 09:27:33;;;;;;;1.67;1.08;;;18.80;84.90;;;;;;5062508;28;20052;-77
2021/08/02 09:30:10;;;;;;;5.60;1.58;;;18.70;86.80;;;;;;5055539;28;20654;-79
2021/08/02 09:32:47;;;;;;;0.82;0.80;;;18.80;87.20;;;;;;5068459;28;20119;-76
2021/08/02 09:35:13;;;;;;;6.95;1.10;;;18.90;89.30;;;;;;5071849;28;20620;-76
2021/08/02 09:37:38;;;;;;;2.55;1.23;;;19.00;86.80;;;;;;5058254;28;20049;-76
2021/08/02 09:40:05;;;;;;;2.63;0.98;;;19.00;85.50;;;;;;5069794;28;20017;-76
2021/08/02 09:42:31;;;;;;;2.33;1.00;;;18.90;87.80;;;;;;5069459;28;20505;-76
2021/08/02 09:45:00;;;;;;;2.22;0.98;;;18.90;85.20;;;;;;5067604;28;20028;-76
2021/08/02 09:47:29;;;;;;;2.33;1.20;;;18.90;86.20;;;;;;5056594;28;20039;-76
2021/08/02 09:49:55;;;;;;;1.50;1.05;;;19.00;86.60;;;;;;5051396;28;20025;-75
2021/08/02 09:52:21;;;;;;;2.88;1.40;;;19.30;85.10;;;;;;5062052;28;20178;-75
2021/08/02 09:54:47;;;;;;;1.80;0.98;;;19.60;81.20;;;;;;5059664;28;20523;-76
2021/08/02 09:57:12;;;;;;;3.15;0.90;;;19.70;81.50;;;;;;5067360;28;20097;-76
2021/08/02 09:59:42;;;;;;;4.35;1.23;;;19.70;79.60;;;;;;5061934;28;20032;-76
2021/08/02 10:02:09;;;;;;;1.75;0.98;;;19.60;80.20;;;;;;5069446;28;20028;-75
2021/08/02 10:04:34;;;;;;;1.48;1.00;;;19.70;81.10;;;;;;5059556;28;20033;-76
2021/08/02 10:07:00;;;;;;;1.73;1.00;;;19.70;78.90;;;;;;5058690;28;20045;-76
2021/08/02 10:09:29;;;;;;;3.15;1.00;;;19.60;80.50;;;;;;5069162;28;20151;-75
2021/08/02 10:11:56;;;;;;;3.88;1.10;;;19.50;78.20;;;;;;5058402;28;20032;-75
2021/08/02 10:14:30;;;;;;;3.67;0.98;;;19.50;80.60;;;;;;5057967;28;20040;-75
2021/08/02 10:17:05;;;;;;;2.97;1.08;;;19.30;80.30;;;;;;5056258;28;20036;-80
2021/08/02 10:19:41;;;;;;;2.22;1.10;;;19.20;82.60;;;;;;5063140;28;20473;-76
2021/08/02 10:22:08;;;;;;;1.42;1.00;;;19.10;80.40;;;;;;5066722;28;20025;-75
2021/08/02 10:24:46;;;;;;;1.63;0.95;;;19.00;81.40;;;;;;5059789;28;20035;-76
2021/08/02 10:27:12;;;;;;;2.65;1.05;;;19.00;81.90;;;;;;5071407;28;20649;-76
2021/08/02 10:29:39;;;;;;;7.60;1.00;;;19.20;81.00;;;;;;5053222;28;20718;-76
2021/08/02 10:32:05;;;;;;;3.03;0.90;;;19.40;80.00;;;;;;5058087;28;20032;-75
2021/08/02 10:34:31;;;;;;;3.03;0.70;;;19.60;80.40;;;;;;5056008;28;20039;-75
2021/08/02 10:36:58;;;;;;;2.42;1.27;;;19.80;79.30;;;;;;5054786;28;20021;-75
2021/08/02 10:39:26;;;;;;;1.63;0.90;;;19.90;77.50;;;;;;5061703;28;20052;-75
2021/08/02 10:42:02;;;;;;;2.83;1.30;;;19.80;77.80;;;;;;5058232;28;20051;-75
2021/08/02 10:44:28;;;;;;;1.02;0.90;;;19.60;76.20;;;;;;5060544;28;20104;-75
2021/08/02 10:47:00;;;;;;;1.30;0.80;;;19.40;75.90;;;;;;5061829;28;20116;-75
2021/08/02 10:49:35;;;;;;;1.15;0.80;;;19.20;75.30;;;;;;5053955;28;20033;-76
2021/08/02 10:52:01;;;;;;;0.82;0.82;;;19.10;77.30;;;;;;5067519;28;20090;-76
2021/08/02 10:54:38;;;;;;;2.05;1.10;;;19.10;77.80;;;;;;5063419;28;20040;-75
2021/08/02 10:57:12;;;;;;;5.18;1.00;;;19.10;78.40;;;;;;5059201;28;20024;-76
2021/08/02 10:59:40;;;;;;;4.07;1.00;;;19.20;78.40;;;;;;5059815;28;20078;-76
2021/08/02 11:02:10;;;;;;;3.17;1.00;;;19.40;79.40;;;;;;5066910;28;20032;-76
2021/08/02 11:04:37;;;;;;;2.40;0.90;;;19.60;76.70;;;;;;5064843;28;20020;-75
2021/08/02 11:07:03;;;;;;;1.00;0.80;;;19.80;73.90;;;;;;5065728;28;20056;-76
2021/08/02 11:09:35;;;;;;;4.93;1.13;;;20.10;71.80;;;;;;5065454;28;20036;-76
2021/08/02 11:12:04;;;;;;;3.97;0.98;;;20.20;72.70;;;;;;5057430;28;20112;-76
2021/08/02 11:14:30;;;;;;;0.98;0.80;;;20.20;63.20;;;;;;5059835;28;20178;-75
2021/08/02 11:16:55;;;;;;;1.40;0.80;;;20.30;63.50;;;;;;5058523;28;20100;-75
2021/08/02 11:19:29;;;;;;;1.98;1.00;;;20.50;62.50;;;;;;5054384;28;20037;-75
2021/08/02 11:22:06;;;;;;;2.17;1.20;;;20.70;61.70;;;;;;5057658;28;20513;-75
2021/08/02 11:24:34;;;;;;;1.92;0.63;;;20.80;63.30;;;;;;5067475;28;20036;-75
2021/08/02 11:27:01;;;;;;;1.48;1.00;;;21.10;63.00;;;;;;5059854;28;20044;-75
2021/08/02 11:29:30;;;;;;;3.75;0.95;;;21.30;60.10;;;;;;5058484;28;20033;-76
2021/08/02 11:32:00;;;;;;;1.38;0.77;;;21.70;62.90;;;;;;5061675;28;20028;-75
2021/08/02 11:34:28;;;;;;;2.55;1.05;;;22.10;60.00;;;;;;5066759;28;20143;-75
2021/08/02 11:37:19;;;;;;;0.88;0.70;;;22.60;57.90;;;;;;5054816;28;20086;-75
2021/08/02 11:39:47;;;;;;;4.68;1.00;;;23.00;55.80;;;;;;5054808;28;20549;-75
2021/08/02 11:42:17;;;;;;;2.20;1.00;;;23.30;54.50;;;;;;5062547;28;20021;-75
2021/08/02 11:44:50;;;;;;;4.03;1.08;;;23.70;52.30;;;;;;5052348;28;20753;-75
2021/08/02 11:47:18;;;;;;;3.83;0.90;;;23.60;52.30;;;;;;5058312;28;20025;-76
2021/08/02 11:49:45;;;;;;;2.20;1.00;;;23.60;52.90;;;;;;5058010;28;20021;-75
2021/08/02 11:52:18;;;;;;;1.25;0.80;;;23.60;53.00;;;;;;5057522;28;20074;-76
2021/08/02 11:54:47;;;;;;;4.60;0.88;;;23.40;53.80;;;;;;5061677;28;20032;-76
2021/08/02 11:57:20;;;;;;;1.35;0.80;;;23.40;55.00;;;;;;5066658;28;20033;-75
2021/08/02 11:59:59;;;;;;;0.68;0.68;;;24.10;55.10;;;;;;5061567;28;20075;-76
2021/08/02 12:02:45;;;;;;;1.48;1.00;;;24.30;53.40;;;;;;5064433;28;20438;-76
2021/08/02 12:05:28;;;;;;;4.30;1.42;;;23.90;53.90;;;;;;5063464;28;20032;-76
2021/08/02 12:07:55;;;;;;;3.10;1.00;;;23.20;55.40;;;;;;5065327;28;20049;-78
2021/08/02 12:10:27;;;;;;;1.25;1.00;;;22.70;55.90;;;;;;5068250;28;20029;-76
2021/08/02 12:13:10;;;;;;;2.72;1.13;;;22.60;55.30;;;;;;5058243;28;20033;-76
2021/08/02 12:15:36;;;;;;;4.07;1.00;;;22.60;55.50;;;;;;5053217;28;20036;-76
2021/08/02 12:18:02;;;;;;;2.95;0.90;;;23.00;56.70;;;;;;5068524;28;20021;-77
2021/08/02 12:20:35;;;;;;;1.67;1.00;;;24.30;53.80;;;;;;5066371;28;20461;-76
2021/08/02 12:23:03;;;;;;;1.45;1.10;;;24.40;52.20;;;;;;5067618;28;20029;-76
2021/08/02 12:25:36;;;;;;;2.25;1.08;;;24.10;51.70;;;;;;5064478;28;20028;-76
2021/08/02 12:28:02;;;;;;;3.75;1.10;;;24.40;53.10;;;;;;5066597;28;20025;-76
2021/08/02 12:30:27;;;;;;;3.40;1.00;;;24.50;53.90;;;;;;5067868;28;20108;-77
2021/08/02 12:32:53;;;;;;;1.85;1.20;;;24.50;51.30;;;;;;5068444;28;20028;-76
2021/08/02 12:35:19;;;;;;;4.78;0.75;;;24.10;52.70;;;;;;5058110;28;20031;-77
2021/08/02 12:37:45;;;;;;;2.55;0.90;;;23.70;54.20;;;;;;5062327;28;20041;-76
2021/08/02 12:40:13;;;;;;;3.08;0.90;;;23.30;53.70;;;;;;5067490;28;20035;-76
2021/08/02 12:42:42;;;;;;;1.55;1.08;;;22.80;53.90;;;;;;5059448;28;20028;-76
2021/08/02 12:45:09;;;;;;;0.88;0.70;;;22.50;55.50;;;;;;5061864;28;20040;-76
2021/08/02 12:47:35;;;;;;;1.25;0.90;;;22.20;58.30;;;;;;5063531;28;20060;-76
2021/08/02 12:50:01;;;;;;;2.30;0.82;;;22.10;57.60;;;;;;5071802;28;20063;-76
2021/08/02 12:52:29;;;;;;;1.80;0.90;;;21.80;58.10;;;;;;5071592;28;20556;-76